This is the latest recevied weather packets stored in our database for station/object SM2FXT-13. If no packets are shown the sender has not sent any weather packets the latest 10 day(s).
| Time | Temp. | Humidity | Pressure | Rain* | Wind** | Luminosity | Snow |
|---|---|---|---|---|---|---|---|
| 1777951204 | 1.67° C | 84% | 994.8 hPa | 0 mm | - | - | - |
| 1777947603 | 1.11° C | 87% | 994.7 hPa | 0 mm | - | - | - |
| 1777933202 | 2.78° C | 92% | 994.5 hPa | 0 mm | - | - | - |
| 1777921203 | 6.11° C | 86% | 995.3 hPa | 0 mm | - | - | - |
| 1777918803 | 7.22° C | 81% | 995.1 hPa | 0 mm | - | - | - |
| 1777918203 | 7.22° C | 82% | 994.8 hPa | 0 mm | - | - | - |
| 1777915803 | 7.78° C | 83% | 995.1 hPa | 0 mm | - | - | - |
| 1777915202 | 7.78° C | 82% | 995.1 hPa | 0 mm | - | - | - |
| 1777905603 | 10.56° C | 69% | 996.4 hPa | 0 mm | - | - | - |
| 1777899003 | 9.44° C | 64% | 997.3 hPa | 0 mm | - | - | - |
| 1777898403 | 9.44° C | 61% | 997.3 hPa | 0 mm | - | - | - |
| 1777897203 | 10° C | 57% | 997.7 hPa | 0 mm | - | - | - |
| 1777890604 | 10° C | 55% | 998.5 hPa | 0 mm | - | - | - |
| 1777887004 | 10° C | 52% | 999.4 hPa | 0 mm | - | - | - |
| 1777886403 | 11.11° C | 50% | 999.5 hPa | 0 mm | - | - | - |
| 1777881003 | 11.67° C | 47% | 1000.4 hPa | 0 mm | - | - | - |
| 1777878603 | 10.56° C | 54% | 1000.9 hPa | 0 mm | - | - | - |
| 1777878004 | 8.33° C | 58% | 1001 hPa | 0 mm | - | - | - |
| 1777876803 | 7.78° C | 59% | 1001.4 hPa | 0 mm | - | - | - |
| 1777875603 | 7.22° C | 60% | 1001.6 hPa | 0 mm | - | - | - |
| 1777873203 | 5° C | 71% | 1002.2 hPa | 0 mm | - | - | - |
| 1777869603 | 3.33° C | 75% | 1002.8 hPa | 0 mm | - | - | - |
| 1777867803 | 2.22° C | 79% | 1003 hPa | 0 mm | - | - | - |
| 1777866603 | 1.67° C | 80% | 1003.3 hPa | 0 mm | - | - | - |
| 1777866004 | 1.11° C | 82% | 1003.6 hPa | 0 mm | - | - | - |
* Rain latest hour (hover to see other rain measurements)
** Current wind speed in m/s (hover to see current wind gust speed)